Time;durP1;ratioP1;P1;durP2;ratioP2;P2;SDS_P1;SDS_P2;PMS_P1;PMS_P2;Temp;Humidity;BMP_temperature;BMP_pressure;BME280_temperature;BME280_humidity;BME280_pressure;Samples;Min_cycle;Max_cycle;Signal;HPM_P1;HPM_P2
2021/05/13 00:00:22;;;;;;;65.00;34.47;;;;;;;8.44;100.00;95333.47;1020102;29;20266;-48
2021/05/13 00:00:53;;;;;;;40.03;25.52;;;;;;;8.44;100.00;95333.47;1020227;29;20020;-49
2021/05/13 00:01:24;;;;;;;30.50;23.92;;;;;;;8.43;100.00;95331.81;1024009;29;20640;-50
2021/05/13 00:01:55;;;;;;;42.20;27.63;;;;;;;8.47;100.00;95325.44;1036195;28;20387;-50
2021/05/13 00:02:26;;;;;;;51.65;29.85;;;;;;;8.52;100.00;95320.72;1032079;28;20030;-49
2021/05/13 00:02:57;;;;;;;56.65;33.10;;;;;;;8.38;100.00;95329.50;1032222;28;20242;-49
2021/05/13 00:03:28;;;;;;;49.97;30.30;;;;;;;8.28;100.00;95331.13;1027974;28;20246;-50
2021/05/13 00:03:59;;;;;;;47.10;30.38;;;;;;;8.33;100.00;95331.63;1020117;29;20023;-49
2021/05/13 00:04:29;;;;;;;40.42;27.45;;;;;;;8.38;100.00;95324.28;1028115;28;20026;-53
2021/05/13 00:05:00;;;;;;;40.10;27.10;;;;;;;8.40;100.00;95324.16;1028138;28;20023;-49
2021/05/13 00:05:31;;;;;;;44.45;29.42;;;;;;;8.36;100.00;95320.13;1024128;28;20046;-50
2021/05/13 00:06:02;;;;;;;44.22;29.40;;;;;;;8.40;100.00;95315.50;1024136;28;20110;-50
2021/05/13 00:06:33;;;;;;;36.35;26.05;;;;;;;8.34;100.00;95322.84;1024173;28;20037;-49
2021/05/13 00:07:04;;;;;;;34.15;25.77;;;;;;;8.35;100.00;95321.91;1024025;29;20255;-50
2021/05/13 00:07:35;;;;;;;49.72;31.75;;;;;;;8.35;100.00;95329.75;1032101;28;20076;-51
2021/05/13 00:08:06;;;;;;;45.45;29.35;;;;;;;8.36;100.00;95325.34;1032093;28;20026;-50
2021/05/13 00:08:37;;;;;;;34.55;25.90;;;;;;;8.33;100.00;95323.78;1028089;28;20022;-50
2021/05/13 00:09:10;;;;;;;30.80;24.02;;;;;;;8.32;100.00;95324.72;1028131;28;20274;-50
2021/05/13 00:09:43;;;;;;;27.48;20.85;;;;;;;8.33;100.00;95320.31;1027955;28;20824;-50
2021/05/13 00:10:16;;;;;;;27.88;22.05;;;;;;;8.34;100.00;95322.84;1028174;28;20246;-49
2021/05/13 00:10:47;;;;;;;38.75;26.63;;;;;;;8.36;100.00;95322.72;1032103;28;20281;-49
2021/05/13 00:11:20;;;;;;;41.83;28.00;;;;;;;8.35;100.00;95324.50;1032914;28;20242;-49
2021/05/13 00:11:53;;;;;;;42.15;27.85;;;;;;;8.37;100.00;95321.78;1027939;28;20029;-49
2021/05/13 00:12:36;;;;;;;49.30;29.60;;;;;;;8.33;100.00;95320.31;1028087;28;20276;-51
2021/05/13 00:13:09;;;;;;;35.90;24.45;;;;;;;8.39;100.00;95319.91;1036168;28;20252;-50
2021/05/13 00:13:40;;;;;;;40.72;27.40;;;;;;;8.42;100.00;95316.28;1027974;28;20311;-52
2021/05/13 00:14:11;;;;;;;36.80;26.30;;;;;;;8.37;100.00;95322.63;1024082;29;20270;-49
2021/05/13 00:14:42;;;;;;;32.20;23.08;;;;;;;8.32;100.00;95316.91;1024146;28;20291;-50
2021/05/13 00:15:23;;;;;;;37.28;25.80;;;;;;;8.35;100.00;95321.06;1036133;28;20383;-49
2021/05/13 00:15:54;;;;;;;36.80;26.90;;;;;;;8.42;100.00;95313.66;1032045;28;20528;-51
2021/05/13 00:16:29;;;;;;;33.50;21.98;;;;;;;8.44;100.00;95317.00;1024099;28;20697;-50
2021/05/13 00:17:00;;;;;;;38.13;25.35;;;;;;;8.44;100.00;95314.38;1020128;29;20255;-50
2021/05/13 00:17:32;;;;;;;32.15;24.77;;;;;;;8.36;100.00;95320.13;1024143;29;20657;-49
2021/05/13 00:18:04;;;;;;;35.25;25.38;;;;;;;8.33;100.00;95310.75;1020057;29;20501;-49
2021/05/13 00:18:35;;;;;;;36.45;25.45;;;;;;;8.38;100.00;95316.44;1020163;29;20635;-49
2021/05/13 00:19:09;;;;;;;37.65;26.30;;;;;;;8.42;100.00;95313.66;1024088;28;20267;-49
2021/05/13 00:19:40;;;;;;;33.10;24.08;;;;;;;8.37;100.00;95312.19;1024073;28;20027;-50
2021/05/13 00:20:13;;;;;;;30.17;23.92;;;;;;;8.45;100.00;95309.06;1024024;29;20362;-50
2021/05/13 00:20:44;;;;;;;32.35;23.05;;;;;;;8.42;100.00;95309.25;1028127;28;20508;-50
2021/05/13 00:21:15;;;;;;;40.17;27.40;;;;;;;8.35;100.00;95306.25;1020084;29;20267;-49
2021/05/13 00:21:46;;;;;;;38.35;27.40;;;;;;;8.33;100.00;95308.13;1024136;28;20022;-53
2021/05/13 00:22:17;;;;;;;32.33;23.52;;;;;;;8.36;100.00;95313.13;1027906;28;20270;-49
2021/05/13 00:22:48;;;;;;;35.08;27.15;;;;;;;8.36;100.00;95302.66;1024023;29;20015;-48
2021/05/13 00:23:19;;;;;;;34.30;25.38;;;;;;;8.42;100.00;95306.66;1028088;28;20034;-50
2021/05/13 00:23:51;;;;;;;39.22;26.67;;;;;;;8.42;100.00;95311.88;1027898;28;20282;-50
2021/05/13 00:24:22;;;;;;;38.70;26.08;;;;;;;8.46;100.00;95309.88;1027897;28;20278;-50
2021/05/13 00:24:53;;;;;;;40.80;26.00;;;;;;;8.46;100.00;95304.66;1024127;29;20247;-50
2021/05/13 00:25:25;;;;;;;42.50;29.25;;;;;;;8.45;100.00;95303.00;1024098;28;20015;-51
2021/05/13 00:25:57;;;;;;;32.50;23.52;;;;;;;8.48;100.00;95305.38;1020194;29;20294;-50
2021/05/13 00:27:08;;;;;;;37.60;25.80;;;;;;;8.48;100.00;95302.75;1028042;28;20250;-50
2021/05/13 00:27:38;;;;;;;36.22;25.23;;;;;;;8.51;100.00;95306.00;1024113;28;20314;-50
2021/05/13 00:28:09;;;;;;;41.65;27.98;;;;;;;8.51;100.00;95297.34;1023997;29;20788;-49
2021/05/13 00:28:40;;;;;;;36.40;25.58;;;;;;;8.57;100.00;95302.09;1020068;29;20386;-49
2021/05/13 00:29:13;;;;;;;47.40;30.92;;;;;;;8.52;100.00;95297.22;1020132;29;20244;-50
2021/05/13 00:29:44;;;;;;;40.92;28.30;;;;;;;8.47;100.00;95296.72;1020032;29;20012;-50
2021/05/13 00:30:15;;;;;;;45.28;29.67;;;;;;;8.51;100.00;95302.56;1024231;29;20250;-48
2021/05/13 00:30:46;;;;;;;47.25;31.50;;;;;;;8.43;100.00;95294.44;1025031;28;20012;-48
2021/05/13 00:31:17;;;;;;;42.20;28.45;;;;;;;8.40;100.00;95298.06;1024334;28;20259;-49
2021/05/13 00:31:48;;;;;;;41.90;27.17;;;;;;;8.43;100.00;95297.03;1028157;28;20015;-48
2021/05/13 00:32:19;;;;;;;38.00;26.52;;;;;;;8.44;100.00;95296.94;1024010;29;20023;-50
2021/05/13 00:32:50;;;;;;;49.15;30.20;;;;;;;8.45;100.00;95293.38;1023971;29;20313;-50
2021/05/13 00:33:21;;;;;;;47.20;29.58;;;;;;;8.47;100.00;95298.50;1023978;29;20314;-49
2021/05/13 00:33:52;;;;;;;41.13;26.98;;;;;;;8.49;100.00;95300.03;1019991;28;20016;-50
2021/05/13 00:34:23;;;;;;;40.20;28.17;;;;;;;8.49;100.00;95299.22;1024094;29;20028;-50
2021/05/13 00:34:54;;;;;;;41.90;27.52;;;;;;;8.46;100.00;95299.44;1023856;29;20022;-50
2021/05/13 00:35:25;;;;;;;45.35;30.95;;;;;;;8.43;100.00;95300.50;1024110;29;20024;-49
2021/05/13 00:35:56;;;;;;;50.85;30.88;;;;;;;8.44;100.00;95293.50;1024054;28;20022;-50
2021/05/13 00:36:28;;;;;;;51.22;31.88;;;;;;;8.44;100.00;95298.72;1024118;29;20286;-51
2021/05/13 00:36:58;;;;;;;46.22;29.85;;;;;;;8.46;100.00;95294.22;1031952;28;20011;-50
2021/05/13 00:37:29;;;;;;;40.03;27.15;;;;;;;8.46;100.00;95294.22;1024121;28;20251;-50
2021/05/13 00:38:01;;;;;;;50.80;31.80;;;;;;;8.45;100.00;95297.78;1032091;28;20015;-50
2021/05/13 00:38:32;;;;;;;48.70;31.17;;;;;;;8.44;100.00;95294.31;1028013;28;20011;-50
2021/05/13 00:39:04;;;;;;;50.22;32.13;;;;;;;8.46;100.00;95295.03;1023886;29;20342;-50
2021/05/13 00:39:34;;;;;;;44.72;30.92;;;;;;;8.44;100.00;95294.31;1024100;28;20450;-49
2021/05/13 00:40:07;;;;;;;47.03;30.13;;;;;;;8.42;100.00;95292.78;1031969;28;20245;-50
2021/05/13 00:40:38;;;;;;;45.28;30.55;;;;;;;8.42;100.00;95293.59;1028008;28;20015;-50
2021/05/13 00:41:09;;;;;;;44.53;30.50;;;;;;;8.45;100.00;95289.94;1023895;28;20266;-51
2021/05/13 00:41:40;;;;;;;43.75;29.17;;;;;;;8.48;100.00;95297.53;1024227;28;20262;-49
2021/05/13 00:42:11;;;;;;;44.58;28.75;;;;;;;8.45;100.00;95288.16;1024002;29;20526;-49
2021/05/13 00:42:42;;;;;;;49.97;32.75;;;;;;;8.44;100.00;95290.88;1031975;28;20496;-51
2021/05/13 00:43:13;;;;;;;39.47;28.10;;;;;;;8.48;100.00;95290.53;1027896;28;20019;-48
2021/05/13 00:43:44;;;;;;;48.42;31.30;;;;;;;8.47;100.00;95290.66;1023872;29;20852;-50
2021/05/13 00:44:15;;;;;;;45.90;30.15;;;;;;;8.45;100.00;95295.19;1020024;28;20083;-49
2021/05/13 00:44:46;;;;;;;38.05;27.33;;;;;;;8.47;100.00;95285.44;1028134;28;20030;-49
2021/05/13 00:45:18;;;;;;;41.63;29.30;;;;;;;8.49;100.00;95289.59;1035938;28;20041;-48
2021/05/13 00:45:49;;;;;;;49.92;32.17;;;;;;;8.46;100.00;95289.00;1032094;28;20261;-49
2021/05/13 00:46:22;;;;;;;47.17;30.35;;;;;;;8.50;100.00;95280.84;1023914;29;20342;-50
2021/05/13 00:46:53;;;;;;;47.08;29.65;;;;;;;8.46;100.00;95284.59;1024044;29;20251;-50
2021/05/13 00:47:26;;;;;;;49.88;31.92;;;;;;;8.40;100.00;95281.59;1019896;29;20798;-49
2021/05/13 00:48:34;;;;;;;52.33;33.13;;;;;;;8.42;100.00;95284.94;1024009;29;20259;-48
2021/05/13 00:49:10;;;;;;;45.55;29.75;;;;;;;8.43;100.00;95281.38;1025415;28;20255;-49
2021/05/13 00:49:41;;;;;;;44.65;29.42;;;;;;;8.44;100.00;95283.06;1025743;28;20290;-49
2021/05/13 00:50:12;;;;;;;57.15;34.20;;;;;;;8.44;100.00;95283.06;1024004;28;20673;-48
2021/05/13 00:50:43;;;;;;;65.85;36.33;;;;;;;8.43;100.00;95279.63;1032101;28;20101;-48
2021/05/13 00:51:14;;;;;;;70.82;38.65;;;;;;;8.41;100.00;95284.09;1027661;28;20022;-49
2021/05/13 00:51:45;;;;;;;44.65;28.88;;;;;;;8.44;100.00;95270.00;1024050;29;20247;-47
2021/05/13 00:52:19;;;;;;;45.92;31.08;;;;;;;8.43;100.00;95277.00;1023868;29;20262;-48
2021/05/13 00:52:49;;;;;;;46.15;30.33;;;;;;;8.42;100.00;95277.94;1027908;28;20353;-49
2021/05/13 00:53:20;;;;;;;40.50;28.50;;;;;;;8.49;100.00;95275.72;1027968;28;20266;-49
2021/05/13 00:53:51;;;;;;;49.08;31.58;;;;;;;8.45;100.00;95272.50;1023672;29;20015;-49
2021/05/13 00:54:22;;;;;;;43.65;29.85;;;;;;;8.47;100.00;95280.22;1027933;28;20023;-49
2021/05/13 00:54:53;;;;;;;45.63;31.25;;;;;;;8.43;100.00;95283.97;1020005;29;20026;-49
2021/05/13 00:55:24;;;;;;;42.88;29.90;;;;;;;8.44;100.00;95277.81;1027936;28;20432;-51
2021/05/13 00:55:55;;;;;;;46.83;32.83;;;;;;;8.43;100.00;95281.38;1027940;28;20453;-50
2021/05/13 00:56:28;;;;;;;42.25;30.17;;;;;;;8.46;100.00;95275.94;1023976;28;20267;-50
2021/05/13 00:56:58;;;;;;;48.88;31.50;;;;;;;8.46;100.00;95278.53;1027911;28;20066;-50
2021/05/13 00:57:29;;;;;;;51.33;34.20;;;;;;;8.43;100.00;95279.63;1027821;28;20266;-50
2021/05/13 00:58:02;;;;;;;45.78;30.40;;;;;;;8.42;100.00;95277.94;1023869;29;20031;-50
2021/05/13 00:58:35;;;;;;;50.33;29.52;;;;;;;8.43;100.00;95279.63;1023886;29;20020;-50
2021/05/13 00:59:08;;;;;;;39.60;28.33;;;;;;;8.41;100.00;95271.03;1019997;29;20259;-51
2021/05/13 00:59:42;;;;;;;44.08;29.55;;;;;;;8.43;100.00;95273.53;1023838;29;20251;-49
2021/05/13 01:01:36;;;;;;;48.25;31.40;;;;;;;8.36;100.00;95268.75;1031878;28;20287;-49
2021/05/13 01:02:08;;;;;;;40.28;28.92;;;;;;;8.35;100.00;95269.69;1023793;29;20310;-49
2021/05/13 01:02:39;;;;;;;47.28;30.00;;;;;;;8.36;100.00;95273.97;1031798;28;20312;-50
2021/05/13 01:03:10;;;;;;;44.03;30.35;;;;;;;8.37;100.00;95272.19;1027874;28;20022;-50
2021/05/13 01:03:41;;;;;;;45.83;29.85;;;;;;;8.37;100.00;95274.78;1019878;29;20018;-49
2021/05/13 01:04:14;;;;;;;55.42;34.47;;;;;;;8.35;100.00;95268.84;1027771;28;20072;-50
2021/05/13 01:04:46;;;;;;;44.90;30.40;;;;;;;8.35;100.00;95269.69;1024009;29;20704;-50
2021/05/13 01:05:17;;;;;;;39.72;28.63;;;;;;;8.43;100.00;95270.94;1019953;29;20252;-50
2021/05/13 01:05:48;;;;;;;48.95;31.00;;;;;;;8.41;100.00;95278.00;1020004;29;20271;-49
2021/05/13 01:06:19;;;;;;;44.33;29.77;;;;;;;8.41;100.00;95271.03;1027799;28;20255;-50
2021/05/13 01:06:50;;;;;;;44.35;28.50;;;;;;;8.42;100.00;95274.50;1023850;29;20031;-50
2021/05/13 01:07:21;;;;;;;45.63;30.27;;;;;;;8.41;100.00;95270.19;1027843;28;20081;-49
2021/05/13 01:07:52;;;;;;;47.45;31.25;;;;;;;8.37;100.00;95270.41;1027910;28;20829;-50
2021/05/13 01:08:23;;;;;;;46.75;31.08;;;;;;;8.35;100.00;95266.22;1027802;28;20102;-50
2021/05/13 01:08:53;;;;;;;42.88;29.08;;;;;;;8.36;100.00;95260.09;1032000;28;20261;-49
2021/05/13 01:09:27;;;;;;;46.45;31.65;;;;;;;8.36;100.00;95263.53;1023901;28;20027;-50
2021/05/13 01:09:59;;;;;;;46.92;32.22;;;;;;;8.41;100.00;95264.97;1027851;28;20265;-51
2021/05/13 01:10:30;;;;;;;43.50;30.25;;;;;;;8.39;100.00;95259.88;1027847;28;20788;-49
2021/05/13 01:11:01;;;;;;;45.97;30.15;;;;;;;8.37;100.00;95264.34;1027940;28;20258;-48
2021/05/13 01:11:32;;;;;;;37.35;27.88;;;;;;;8.38;100.00;95260.81;1023843;28;20259;-49
2021/05/13 01:12:08;;;;;;;42.90;29.23;;;;;;;8.36;100.00;95262.69;1023842;29;20449;-49
2021/05/13 01:12:40;;;;;;;44.47;29.77;;;;;;;8.37;100.00;95254.75;1023854;29;20027;-50
2021/05/13 01:13:17;;;;;;;42.72;29.52;;;;;;;8.38;100.00;95256.41;1020049;29;20263;-49
2021/05/13 01:13:55;;;;;;;41.85;29.08;;;;;;;8.37;100.00;95257.38;1023719;29;20255;-50
2021/05/13 01:14:31;;;;;;;39.95;28.38;;;;;;;8.33;100.00;95257.69;1027828;28;20301;-50
2021/05/13 01:15:08;;;;;;;34.92;26.42;;;;;;;8.33;100.00;95258.53;1031788;28;20254;-49
2021/05/13 01:15:42;;;;;;;42.25;27.88;;;;;;;8.34;100.00;95260.19;1030652;28;20265;-50
2021/05/13 01:16:25;;;;;;;42.35;28.60;;;;;;;8.27;100.00;95251.13;1023860;29;20314;-49
2021/05/13 01:17:43;;;;;;;40.10;28.70;;;;;;;8.25;100.00;95257.41;1023941;29;20611;-50
2021/05/13 01:18:45;;;;;;;41.55;29.60;;;;;;;8.26;100.00;95252.09;1025551;28;20322;-49
2021/05/13 01:19:17;;;;;;;38.03;27.45;;;;;;;8.26;100.00;95256.47;1031828;28;20324;-49
2021/05/13 01:19:51;;;;;;;43.20;29.88;;;;;;;8.22;100.00;95245.44;1023918;29;20019;-49
2021/05/13 01:20:22;;;;;;;38.67;27.08;;;;;;;8.18;100.00;95252.66;1019921;29;20801;-49
2021/05/13 01:20:53;;;;;;;44.58;30.17;;;;;;;8.18;100.00;95251.78;1023293;28;20267;-50
2021/05/13 01:21:25;;;;;;;38.20;27.70;;;;;;;8.18;100.00;95251.78;1027644;28;20034;-50
2021/05/13 01:21:56;;;;;;;38.92;29.05;;;;;;;8.17;100.00;95250.97;1019865;29;20275;-50
2021/05/13 01:22:27;;;;;;;39.53;28.65;;;;;;;8.16;100.00;95253.69;1027814;28;20327;-48
2021/05/13 01:22:58;;;;;;;42.55;28.17;;;;;;;8.13;100.00;95246.09;1019710;28;20698;-48
2021/05/13 01:23:29;;;;;;;39.30;28.83;;;;;;;8.14;100.00;95247.75;1027662;28;20542;-49
2021/05/13 01:24:00;;;;;;;47.60;31.42;;;;;;;8.12;100.00;95247.84;1023810;29;20760;-48
2021/05/13 01:24:32;;;;;;;48.40;32.22;;;;;;;8.09;100.00;95244.63;1019751;29;20264;-50
2021/05/13 01:25:04;;;;;;;39.78;29.00;;;;;;;8.07;100.00;95247.38;1023731;28;20493;-50
2021/05/13 01:25:49;;;;;;;47.88;30.67;;;;;;;8.11;100.00;95245.38;1030185;28;20362;-49
2021/05/13 01:26:21;;;;;;;41.08;27.83;;;;;;;8.06;100.00;95245.69;1027749;28;20861;-50
2021/05/13 01:26:53;;;;;;;45.15;30.17;;;;;;;8.04;100.00;95252.81;1032422;28;20258;-47
2021/05/13 01:27:23;;;;;;;45.67;31.02;;;;;;;8.02;100.00;95244.25;1019856;29;20264;-48
2021/05/13 01:27:57;;;;;;;41.88;30.52;;;;;;;8.01;100.00;95246.97;1031853;28;20245;-50
2021/05/13 01:28:29;;;;;;;42.92;29.60;;;;;;;7.99;100.00;95249.69;1035877;28;20048;-50
2021/05/13 01:29:00;;;;;;;53.72;33.92;;;;;;;7.96;100.00;95253.34;1023629;29;20781;-50
2021/05/13 01:29:31;;;;;;;40.65;28.77;;;;;;;7.92;100.00;95238.88;1027861;28;20251;-49
2021/05/13 01:30:03;;;;;;;40.45;28.75;;;;;;;7.97;100.00;95241.97;1031795;28;20292;-49
2021/05/13 01:30:35;;;;;;;38.60;26.77;;;;;;;7.95;100.00;95243.03;1031872;28;20269;-49
2021/05/13 01:31:06;;;;;;;42.95;29.48;;;;;;;7.94;100.00;95241.38;1031581;28;20755;-50
2021/05/13 01:31:37;;;;;;;40.17;29.20;;;;;;;7.95;100.00;95253.44;1031820;28;20245;-50
2021/05/13 01:32:08;;;;;;;40.05;28.42;;;;;;;7.92;100.00;95249.28;1027823;28;20022;-50
2021/05/13 01:32:39;;;;;;;36.55;25.90;;;;;;;7.93;100.00;95242.28;1027734;28;20798;-50
2021/05/13 01:33:12;;;;;;;39.17;27.73;;;;;;;7.96;100.00;95244.69;1027620;28;20281;-51
2021/05/13 01:33:43;;;;;;;39.80;28.05;;;;;;;7.92;100.00;95241.47;1023589;29;20015;-50
2021/05/13 01:34:15;;;;;;;43.10;30.42;;;;;;;7.94;100.00;95243.97;1027853;28;20258;-50
2021/05/13 01:34:46;;;;;;;41.63;29.08;;;;;;;7.90;100.00;95245.13;1027834;28;20041;-49
2021/05/13 01:35:17;;;;;;;40.88;27.88;;;;;;;7.90;100.00;95245.13;1035698;28;20751;-49
2021/05/13 01:35:48;;;;;;;36.60;26.25;;;;;;;7.89;100.00;95252.13;1031795;28;20698;-50
2021/05/13 01:36:19;;;;;;;38.67;28.42;;;;;;;7.87;100.00;95251.38;1027713;28;20286;-49
2021/05/13 01:36:50;;;;;;;40.35;27.85;;;;;;;7.87;100.00;95251.38;1035883;28;20314;-49
2021/05/13 01:37:21;;;;;;;38.50;27.45;;;;;;;7.88;100.00;95247.00;1023645;28;20255;-49
2021/05/13 01:38:04;;;;;;;43.63;29.00;;;;;;;7.85;100.00;95249.84;1027740;28;20270;-50
2021/05/13 01:38:35;;;;;;;47.63;31.10;;;;;;;7.86;100.00;95252.31;1027729;28;20015;-50
2021/05/13 01:39:07;;;;;;;41.38;28.02;;;;;;;7.83;100.00;95247.34;1027722;28;20246;-49
2021/05/13 01:39:38;;;;;;;40.15;28.33;;;;;;;7.83;100.00;95255.16;1019763;29;20655;-50
2021/05/13 01:40:11;;;;;;;45.08;26.80;;;;;;;7.83;100.00;95249.94;1027762;28;20246;-48
2021/05/13 01:40:53;;;;;;;37.33;26.88;;;;;;;7.81;100.00;95248.38;1035825;28;20292;-51
2021/05/13 01:41:24;;;;;;;46.63;29.70;;;;;;;7.79;100.00;95253.72;1031644;28;20249;-51
2021/05/13 01:41:54;;;;;;;43.83;27.85;;;;;;;7.76;100.00;95253.94;1039908;28;20264;-48
2021/05/13 01:42:25;;;;;;;43.30;28.58;;;;;;;7.77;100.00;95252.97;1023761;28;20019;-51
2021/05/13 01:42:57;;;;;;;48.03;31.25;;;;;;;7.78;100.00;95250.25;1035720;28;20022;-52
2021/05/13 01:43:28;;;;;;;38.28;28.00;;;;;;;7.78;100.00;95252.03;1031704;28;20348;-49
2021/05/13 01:43:59;;;;;;;41.42;27.88;;;;;;;7.77;100.00;95253.81;1023664;29;20247;-49
2021/05/13 01:44:30;;;;;;;37.10;26.38;;;;;;;7.77;100.00;95251.22;1023725;29;20255;-51
2021/05/13 01:45:03;;;;;;;38.40;28.30;;;;;;;7.74;100.00;95255.81;1035823;28;20264;-50
2021/05/13 01:45:34;;;;;;;38.40;28.52;;;;;;;7.68;100.00;95241.44;1031638;28;20262;-49
2021/05/13 01:46:05;;;;;;;42.05;28.42;;;;;;;7.71;100.00;95251.63;1031590;28;20253;-52
2021/05/13 01:46:36;;;;;;;44.65;29.65;;;;;;;7.72;100.00;95257.69;1035808;28;20209;-49
2021/05/13 01:47:07;;;;;;;47.05;30.60;;;;;;;7.71;100.00;95250.78;1023701;29;20263;-50
2021/05/13 01:47:38;;;;;;;39.47;29.10;;;;;;;7.76;100.00;95253.94;1035774;28;20253;-51
2021/05/13 01:48:09;;;;;;;36.88;27.70;;;;;;;7.75;100.00;95253.09;1031714;28;20257;-49
2021/05/13 01:48:41;;;;;;;45.83;29.48;;;;;;;7.74;100.00;95258.41;1027806;28;20550;-50
2021/05/13 01:49:21;;;;;;;45.58;30.55;;;;;;;7.70;100.00;95255.19;1023760;28;20050;-51
2021/05/13 01:49:53;;;;;;;45.92;30.42;;;;;;;7.68;100.00;95251.03;1023678;28;20669;-50
2021/05/13 01:50:24;;;;;;;54.50;32.50;;;;;;;7.69;100.00;95255.28;1027829;28;20053;-49
2021/05/13 01:50:55;;;;;;;56.17;33.40;;;;;;;7.66;100.00;95247.66;1035778;28;20280;-49
2021/05/13 01:51:26;;;;;;;44.28;29.90;;;;;;;7.68;100.00;95251.84;1027590;28;20261;-48
2021/05/13 01:51:57;;;;;;;41.90;28.25;;;;;;;7.69;100.00;95252.69;1027699;28;20349;-49
2021/05/13 01:52:28;;;;;;;45.33;30.30;;;;;;;7.68;100.00;95251.84;1031767;28;20022;-49
2021/05/13 01:52:59;;;;;;;50.88;32.08;;;;;;;7.66;100.00;95252.88;1023739;29;20540;-50
2021/05/13 01:53:30;;;;;;;56.65;33.67;;;;;;;7.66;100.00;95256.34;1027624;28;20030;-48
2021/05/13 01:54:01;;;;;;;56.20;33.72;;;;;;;7.67;100.00;95251.97;1031567;28;20344;-49
2021/05/13 01:54:32;;;;;;;56.35;34.03;;;;;;;7.62;100.00;95252.28;1023721;29;20081;-51
2021/05/13 01:55:03;;;;;;;45.67;29.38;;;;;;;7.62;100.00;95247.09;1027701;28;20077;-50
2021/05/13 01:55:34;;;;;;;45.38;30.35;;;;;;;7.63;100.00;95247.91;1027779;28;20250;-50
2021/05/13 01:56:07;;;;;;;51.85;31.20;;;;;;;7.58;100.00;95237.78;1027593;28;20336;-49
2021/05/13 01:56:38;;;;;;;45.05;29.40;;;;;;;7.64;100.00;95250.41;1035702;28;20622;-50
2021/05/13 01:57:09;;;;;;;50.45;30.80;;;;;;;7.62;100.00;95247.09;1031658;28;20264;-50
2021/05/13 01:57:40;;;;;;;61.03;33.97;;;;;;;7.62;100.00;95251.44;1027678;28;20030;-49
2021/05/13 01:58:11;;;;;;;47.78;30.13;;;;;;;7.65;100.00;95246.84;1027520;28;20708;-49
2021/05/13 01:58:42;;;;;;;43.08;29.50;;;;;;;7.65;100.00;95246.03;1031696;28;20543;-50
2021/05/13 01:59:13;;;;;;;49.83;31.55;;;;;;;7.65;100.00;95249.44;1031653;28;20034;-50
2021/05/13 01:59:44;;;;;;;55.80;33.65;;;;;;;7.65;100.00;95248.63;1019768;29;20311;-49
2021/05/13 02:00:16;;;;;;;54.53;32.60;;;;;;;7.65;100.00;95246.03;1031419;28;20790;-49
2021/05/13 02:00:49;;;;;;;44.70;30.13;;;;;;;7.66;100.00;95247.66;1035742;28;20299;-50
2021/05/13 02:01:20;;;;;;;50.60;30.90;;;;;;;7.67;100.00;95244.97;1027699;28;20601;-50
2021/05/13 02:01:51;;;;;;;55.38;31.63;;;;;;;7.68;100.00;95249.25;1031819;28;20399;-49
2021/05/13 02:02:23;;;;;;;44.88;28.40;;;;;;;7.68;100.00;95238.81;1035539;28;20112;-49
2021/05/13 02:02:54;;;;;;;44.40;28.13;;;;;;;7.68;100.00;95244.03;1027673;28;20297;-49
2021/05/13 02:03:26;;;;;;;38.65;27.15;;;;;;;7.65;100.00;95246.03;1027580;28;20274;-51
2021/05/13 02:03:57;;;;;;;50.90;32.05;;;;;;;7.67;100.00;95241.53;1027522;28;20251;-51
2021/05/13 02:04:30;;;;;;;38.50;27.50;;;;;;;7.67;100.00;95239.75;1031436;28;20265;-48
2021/05/13 02:05:01;;;;;;;39.85;28.27;;;;;;;7.68;100.00;95241.44;1027652;28;20767;-51
2021/05/13 02:05:32;;;;;;;48.00;30.80;;;;;;;7.67;100.00;95244.97;1035708;28;20292;-50
2021/05/13 02:06:04;;;;;;;38.20;27.35;;;;;;;7.66;100.00;95237.25;1027664;28;20027;-51
2021/05/13 02:06:35;;;;;;;38.90;27.25;;;;;;;7.66;100.00;95237.25;1023511;29;20314;-50
2021/05/13 02:07:06;;;;;;;31.08;24.48;;;;;;;7.69;100.00;95237.88;1031632;28;20266;-49
2021/05/13 02:07:37;;;;;;;39.33;26.98;;;;;;;7.71;100.00;95242.97;1035681;28;20164;-50
2021/05/13 02:08:08;;;;;;;36.00;28.05;;;;;;;7.69;100.00;95240.47;1027679;28;20117;-50
2021/05/13 02:08:40;;;;;;;46.55;29.77;;;;;;;7.65;100.00;95238.19;1035675;28;20634;-49
2021/05/13 02:09:11;;;;;;;45.17;29.48;;;;;;;7.68;100.00;95238.00;1023687;29;20334;-49
2021/05/13 02:09:42;;;;;;;45.97;29.88;;;;;;;7.69;100.00;95237.03;1027638;28;20632;-50
2021/05/13 02:10:14;;;;;;;40.72;26.63;;;;;;;7.69;100.00;95234.44;1039948;28;20064;-49
2021/05/13 02:10:46;;;;;;;39.25;27.77;;;;;;;7.69;100.00;95237.03;1035620;28;20257;-51
2021/05/13 02:11:17;;;;;;;41.70;27.13;;;;;;;7.68;100.00;95238.00;1027568;28;20286;-48
2021/05/13 02:11:48;;;;;;;52.08;31.38;;;;;;;7.69;100.00;95242.25;1031636;28;20344;-50
2021/05/13 02:12:19;;;;;;;48.50;31.65;;;;;;;7.70;100.00;95234.31;1031634;28;20253;-51
2021/05/13 02:12:50;;;;;;;46.45;29.75;;;;;;;7.66;100.00;95237.25;1019572;29;20110;-49
2021/05/13 02:13:21;;;;;;;53.15;33.95;;;;;;;7.65;100.00;95236.41;1027681;28;20270;-49
2021/05/13 02:13:52;;;;;;;52.22;30.60;;;;;;;7.61;100.00;95236.75;1019468;29;20118;-48
2021/05/13 02:14:23;;;;;;;46.13;29.60;;;;;;;7.63;100.00;95233.09;1027726;28;20022;-49
2021/05/13 02:14:54;;;;;;;50.00;31.65;;;;;;;7.64;100.00;95239.13;1023563;28;20818;-50
2021/05/13 02:15:26;;;;;;;59.90;34.30;;;;;;;7.62;100.00;95235.78;1023635;28;20426;-51
2021/05/13 02:15:56;;;;;;;57.50;32.83;;;;;;;7.60;100.00;95235.91;1031558;28;20361;-49
2021/05/13 02:16:27;;;;;;;48.65;30.20;;;;;;;7.58;100.00;95232.56;1023684;29;20047;-50
2021/05/13 02:16:58;;;;;;;46.45;28.75;;;;;;;7.56;100.00;95235.31;1027489;28;20050;-49
2021/05/13 02:17:30;;;;;;;48.33;29.40;;;;;;;7.56;100.00;95235.31;1031658;28;20261;-49
2021/05/13 02:18:00;;;;;;;56.40;32.90;;;;;;;7.54;100.00;95237.16;1019722;28;20027;-48
2021/05/13 02:18:31;;;;;;;47.80;30.27;;;;;;;7.53;100.00;95230.31;1031636;28;20261;-51
2021/05/13 02:19:02;;;;;;;56.10;33.72;;;;;;;7.53;100.00;95237.28;1035471;28;20115;-49
2021/05/13 02:19:33;;;;;;;58.67;34.10;;;;;;;7.51;100.00;95240.00;1023665;28;20255;-49
2021/05/13 02:20:06;;;;;;;79.97;39.83;;;;;;;7.47;100.00;95235.94;1031642;28;20245;-50
2021/05/13 02:20:37;;;;;;;52.88;31.65;;;;;;;7.47;100.00;95237.69;1031711;28;20643;-50
2021/05/13 02:21:08;;;;;;;51.10;30.58;;;;;;;7.47;100.00;95238.56;1023444;28;20254;-51
2021/05/13 02:21:39;;;;;;;46.53;29.63;;;;;;;7.44;100.00;95232.72;1027559;28;20266;-50
2021/05/13 02:22:10;;;;;;;58.00;32.58;;;;;;;7.44;100.00;95232.72;1023692;28;20741;-49
2021/05/13 02:22:41;;;;;;;45.90;29.63;;;;;;;7.43;100.00;95231.88;1027539;28;20109;-49
2021/05/13 02:23:12;;;;;;;41.88;28.67;;;;;;;7.42;100.00;95226.78;1035442;28;20033;-51
2021/05/13 02:23:43;;;;;;;66.20;36.40;;;;;;;7.43;100.00;95226.66;1023391;28;20685;-50
2021/05/13 02:24:14;;;;;;;47.88;30.25;;;;;;;7.40;100.00;95229.50;1035711;28;20249;-50
2021/05/13 02:24:45;;;;;;;52.90;32.22;;;;;;;7.39;100.00;95233.03;1023713;28;20023;-49
2021/05/13 02:25:16;;;;;;;63.20;34.45;;;;;;;7.35;100.00;95228.97;1031174;28;20512;-50
2021/05/13 02:25:47;;;;;;;56.47;32.83;;;;;;;7.33;100.00;95233.44;1031606;28;20276;-50
2021/05/13 02:26:20;;;;;;;63.67;34.08;;;;;;;7.30;100.00;95226.69;1031576;28;20030;-51
2021/05/13 02:26:51;;;;;;;43.88;29.45;;;;;;;7.31;100.00;95230.13;1027616;28;20547;-49
2021/05/13 02:27:22;;;;;;;44.13;30.35;;;;;;;7.30;100.00;95225.84;1027511;28;20262;-50
2021/05/13 02:27:53;;;;;;;44.42;29.30;;;;;;;7.30;100.00;95231.03;1027543;28;20022;-50
2021/05/13 02:28:24;;;;;;;41.70;26.98;;;;;;;7.29;100.00;95230.22;1031539;28;20276;-50
2021/05/13 02:28:55;;;;;;;46.20;30.52;;;;;;;7.29;100.00;95230.22;1023654;28;20262;-49
2021/05/13 02:29:26;;;;;;;44.65;29.85;;;;;;;7.27;100.00;95231.28;1027422;28;20019;-48
2021/05/13 02:29:57;;;;;;;50.05;30.60;;;;;;;7.28;100.00;95222.50;1023591;29;20362;-49